Time;durP1;ratioP1;P1;durP2;ratioP2;P2;SDS_P1;SDS_P2;PMS_P1;PMS_P2;Temp;Humidity;BMP_temperature;BMP_pressure;BME280_temperature;BME280_humidity;BME280_pressure;Samples;Min_cycle;Max_cycle;Signal;HPM_P1;HPM_P2
2023/03/23 00:02:20;;;;;;;;;;;;;;;;;;4996299;28;19914;-87
2023/03/23 00:04:49;;;;;;;;;;;;;;;;;;4995531;28;19997;-85
2023/03/23 00:07:21;;;;;;;;;;;;;;;;;;4995795;28;19913;-86
2023/03/23 00:09:47;;;;;;;;;;;;;;;;;;4996830;28;19983;-87
2023/03/23 00:12:15;;;;;;;;;;;;;;;;;;4963680;28;19913;-85
2023/03/23 00:14:43;;;;;;;;;;;;;;;;;;4979144;28;19914;-86
2023/03/23 00:17:10;;;;;;;;;;;;;;;;;;4996923;28;19914;-86
2023/03/23 00:19:45;;;;;;;;;;;;;;;;;;4996158;28;20445;-82
2023/03/23 00:22:11;;;;;;;;;;;;;;;;;;4997498;28;20012;-84
2023/03/23 00:24:37;;;;;;;;;;;;;;;;;;4997100;28;19949;-83
2023/03/23 00:27:02;;;;;;;;;;;;;;;;;;4980538;28;19936;-85
2023/03/23 00:29:28;;;;;;;;;;;;;;;;;;4998598;28;19914;-86
2023/03/23 00:31:53;;;;;;;;;;;;;;;;;;4999632;28;19917;-85
2023/03/23 00:34:19;;;;;;;;;;;;;;;;;;4998337;28;19925;-85
2023/03/23 00:36:44;;;;;;;;;;;;;;;;;;4996866;28;19921;-83
2023/03/23 00:39:11;;;;;;;;;;;;;;;;;;5002016;28;19913;-85
2023/03/23 00:41:38;;;;;;;;;;;;;;;;;;5015641;23;19926;-81
2023/03/23 00:44:08;;;;;;;;;;;;;;;;;;4973348;28;19918;-79
2023/03/23 00:46:33;;;;;;;;;;;;;;;;;;4977185;28;19917;-80
2023/03/23 00:49:02;;;;;;;;;;;;;;;;;;4979684;28;19980;-79
2023/03/23 00:51:28;;;;;;;;;;;;;;;;;;4995219;28;19937;-79
2023/03/23 00:53:56;;;;;;;;;;;;;;;;;;4961105;28;19921;-80
2023/03/23 00:56:23;;;;;;;;;;;;;;;;;;4990962;28;19914;-79
2023/03/23 00:58:49;;;;;;;;;;;;;;;;;;4993079;28;20412;-80
2023/03/23 01:01:15;;;;;;;;;;;;;;;;;;4991695;28;19918;-81
2023/03/23 01:03:41;;;;;;;;;;;;;;;;;;4961004;28;19914;-81
2023/03/23 01:06:08;;;;;;;;;;;;;;;;;;5013173;28;19937;-79
2023/03/23 01:08:33;;;;;;;;;;;;;;;;;;4979284;28;19929;-80
2023/03/23 01:10:59;;;;;;;;;;;;;;;;;;4995487;28;19914;-79
2023/03/23 01:13:25;;;;;;;;;;;;;;;;;;4979166;28;19925;-80
2023/03/23 01:15:53;;;;;;;;;;;;;;;;;;4979808;28;19917;-79
2023/03/23 01:18:18;;;;;;;;;;;;;;;;;;4963701;28;19914;-79
2023/03/23 01:20:45;;;;;;;;;;;;;;;;;;4963348;28;20336;-81
2023/03/23 01:23:10;;;;;;;;;;;;;;;;;;4962459;28;19914;-80
2023/03/23 01:25:36;;;;;;;;;;;;;;;;;;4962377;28;19914;-80
2023/03/23 01:28:02;;;;;;;;;;;;;;;;;;4996531;28;19913;-80
2023/03/23 01:30:28;;;;;;;;;;;;;;;;;;4966614;28;19913;-79
2023/03/23 01:32:56;;;;;;;;;;;;;;;;;;4985412;28;19949;-80
2023/03/23 01:35:22;;;;;;;;;;;;;;;;;;4985769;28;19921;-80
2023/03/23 01:37:48;;;;;;;;;;;;;;;;;;5000744;28;19913;-80
2023/03/23 01:40:14;;;;;;;;;;;;;;;;;;5001410;28;19921;-81
2023/03/23 01:42:40;;;;;;;;;;;;;;;;;;4968863;28;19901;-80
2023/03/23 01:45:09;;;;;;;;;;;;;;;;;;4998670;28;19937;-79
2023/03/23 01:47:35;;;;;;;;;;;;;;;;;;4966952;28;19914;-79
2023/03/23 01:50:01;;;;;;;;;;;;;;;;;;5000039;28;19984;-79
2023/03/23 01:52:33;;;;;;;;;;;;;;;;;;4984737;28;19929;-81
2023/03/23 01:55:01;;;;;;;;;;;;;;;;;;4983717;28;19956;-80
2023/03/23 01:57:29;;;;;;;;;;;;;;;;;;4982022;28;19914;-80
2023/03/23 01:59:59;;;;;;;;;;;;;;;;;;4966239;28;19914;-81
2023/03/23 02:02:39;;;;;;;;;;;;;;;;;;4979208;28;19913;-80
2023/03/23 02:05:05;;;;;;;;;;;;;;;;;;4974637;28;19914;-80
2023/03/23 02:07:31;;;;;;;;;;;;;;;;;;4960027;28;19913;-79
2023/03/23 02:09:59;;;;;;;;;;;;;;;;;;4991657;28;19938;-80
2023/03/23 02:12:26;;;;;;;;;;;;;;;;;;4961422;28;19914;-79
2023/03/23 02:14:55;;;;;;;;;;;;;;;;;;4962766;28;20320;-80
2023/03/23 02:17:21;;;;;;;;;;;;;;;;;;4960711;28;19913;-81
2023/03/23 02:19:49;;;;;;;;;;;;;;;;;;4977014;28;19914;-79
2023/03/23 02:22:15;;;;;;;;;;;;;;;;;;4961871;28;19936;-80
2023/03/23 02:24:41;;;;;;;;;;;;;;;;;;4995908;28;19941;-80
2023/03/23 02:27:08;;;;;;;;;;;;;;;;;;4978117;28;19917;-80
2023/03/23 02:29:33;;;;;;;;;;;;;;;;;;4994437;28;19921;-81
2023/03/23 02:31:59;;;;;;;;;;;;;;;;;;4979397;28;19923;-80
2023/03/23 02:34:25;;;;;;;;;;;;;;;;;;4996980;28;19925;-79
2023/03/23 02:36:54;;;;;;;;;;;;;;;;;;4980151;28;19949;-80
2023/03/23 02:39:21;;;;;;;;;;;;;;;;;;4957292;28;19920;-79
2023/03/23 02:41:47;;;;;;;;;;;;;;;;;;4990539;28;19960;-80
2023/03/23 02:44:13;;;;;;;;;;;;;;;;;;4990406;28;19913;-79
2023/03/23 02:46:38;;;;;;;;;;;;;;;;;;4959170;28;19914;-79
2023/03/23 02:49:07;;;;;;;;;;;;;;;;;;4976069;28;19920;-80
2023/03/23 02:51:33;;;;;;;;;;;;;;;;;;4975198;28;19914;-81
2023/03/23 02:54:01;;;;;;;;;;;;;;;;;;4973539;28;19918;-81
2023/03/23 02:56:27;;;;;;;;;;;;;;;;;;4974697;28;19945;-80
2023/03/23 02:58:54;;;;;;;;;;;;;;;;;;4990662;28;19914;-80
2023/03/23 03:01:20;;;;;;;;;;;;;;;;;;4988560;28;19920;-80
2023/03/23 03:03:45;;;;;;;;;;;;;;;;;;4988375;28;20424;-79
2023/03/23 03:06:11;;;;;;;;;;;;;;;;;;4987491;28;19985;-79
2023/03/23 03:08:39;;;;;;;;;;;;;;;;;;4971620;28;19921;-81
2023/03/23 03:11:07;;;;;;;;;;;;;;;;;;4954823;28;19977;-80
2023/03/23 03:13:33;;;;;;;;;;;;;;;;;;4955739;28;19917;-80
2023/03/23 03:16:01;;;;;;;;;;;;;;;;;;4971010;28;19914;-80
2023/03/23 03:18:27;;;;;;;;;;;;;;;;;;4954486;28;19914;-80
2023/03/23 03:20:53;;;;;;;;;;;;;;;;;;4970594;28;19981;-80
2023/03/23 03:23:20;;;;;;;;;;;;;;;;;;4972281;28;19914;-79
2023/03/23 03:25:49;;;;;;;;;;;;;;;;;;4987489;28;19964;-79
2023/03/23 03:28:21;;;;;;;;;;;;;;;;;;4971697;28;19914;-79
2023/03/23 03:30:47;;;;;;;;;;;;;;;;;;4971449;28;19914;-79
2023/03/23 03:33:14;;;;;;;;;;;;;;;;;;4969899;28;19918;-78
2023/03/23 03:35:40;;;;;;;;;;;;;;;;;;4969512;28;19920;-80
2023/03/23 03:38:07;;;;;;;;;;;;;;;;;;4973838;28;19913;-79
2023/03/23 03:40:36;;;;;;;;;;;;;;;;;;4996210;28;19956;-80
2023/03/23 03:43:02;;;;;;;;;;;;;;;;;;4998473;28;19924;-80
2023/03/23 03:45:34;;;;;;;;;;;;;;;;;;4986341;28;19937;-79
2023/03/23 03:48:01;;;;;;;;;;;;;;;;;;4983633;28;19921;-80
2023/03/23 03:50:27;;;;;;;;;;;;;;;;;;4979963;28;19914;-80
2023/03/23 03:52:53;;;;;;;;;;;;;;;;;;4978987;28;19939;-80
2023/03/23 03:55:19;;;;;;;;;;;;;;;;;;4977178;28;19917;-78
2023/03/23 03:57:46;;;;;;;;;;;;;;;;;;4979159;28;19921;-79
2023/03/23 04:00:42;;;;;;;;;;;;;;;;;;4924798;28;19915;-79
2023/03/23 04:03:08;;;;;;;;;;;;;;;;;;4991304;28;19914;-79
2023/03/23 04:05:44;;;;;;;;;;;;;;;;;;4992023;28;19914;-80
2023/03/23 04:08:10;;;;;;;;;;;;;;;;;;4973530;28;19921;-80
2023/03/23 04:10:36;;;;;;;;;;;;;;;;;;5009885;28;20008;-80
2023/03/23 04:13:04;;;;;;;;;;;;;;;;;;4976041;28;19937;-79
2023/03/23 04:15:29;;;;;;;;;;;;;;;;;;4992327;28;19914;-79
2023/03/23 04:17:56;;;;;;;;;;;;;;;;;;4975580;28;19913;-79
2023/03/23 04:20:22;;;;;;;;;;;;;;;;;;4958159;28;20369;-79
2023/03/23 04:22:49;;;;;;;;;;;;;;;;;;4973540;28;19954;-79
2023/03/23 04:25:17;;;;;;;;;;;;;;;;;;4975401;28;20644;-81
2023/03/23 04:27:43;;;;;;;;;;;;;;;;;;4991507;28;19920;-79
2023/03/23 04:30:09;;;;;;;;;;;;;;;;;;4960370;28;19914;-80
2023/03/23 04:32:41;;;;;;;;;;;;;;;;;;4977131;28;19985;-79
2023/03/23 04:35:07;;;;;;;;;;;;;;;;;;4958309;28;19914;-80
2023/03/23 04:37:39;;;;;;;;;;;;;;;;;;4973801;28;19918;-78
2023/03/23 04:40:10;;;;;;;;;;;;;;;;;;5007675;28;19920;-80
2023/03/23 04:42:39;;;;;;;;;;;;;;;;;;4994967;28;20016;-80
2023/03/23 04:45:28;;;;;;;;;;;;;;;;;;4963109;28;19925;-80
2023/03/23 04:47:57;;;;;;;;;;;;;;;;;;4981186;28;19918;-79
2023/03/23 04:50:33;;;;;;;;;;;;;;;;;;4966291;28;19914;-78
2023/03/23 04:53:06;;;;;;;;;;;;;;;;;;4982386;28;19921;-79
2023/03/23 04:55:35;;;;;;;;;;;;;;;;;;4981315;28;19921;-79
2023/03/23 04:58:02;;;;;;;;;;;;;;;;;;4962922;28;19916;-80
2023/03/23 05:00:43;;;;;;;;;;;;;;;;;;4968247;28;19921;-78
2023/03/23 05:03:09;;;;;;;;;;;;;;;;;;4965878;28;19973;-79
2023/03/23 05:05:35;;;;;;;;;;;;;;;;;;4966283;28;19921;-79
2023/03/23 05:08:05;;;;;;;;;;;;;;;;;;4982582;28;19914;-79
2023/03/23 05:10:34;;;;;;;;;;;;;;;;;;4984188;28;19914;-80
2023/03/23 05:13:09;;;;;;;;;;;;;;;;;;4982888;28;19918;-80
2023/03/23 05:15:35;;;;;;;;;;;;;;;;;;4997500;28;19986;-80
2023/03/23 05:18:04;;;;;;;;;;;;;;;;;;4982762;28;19917;-80
2023/03/23 05:20:32;;;;;;;;;;;;;;;;;;4983189;28;19968;-79
2023/03/23 05:23:02;;;;;;;;;;;;;;;;;;4967571;28;19909;-81
2023/03/23 05:25:36;;;;;;;;;;;;;;;;;;4965870;28;19913;-79
2023/03/23 05:28:07;;;;;;;;;;;;;;;;;;4967124;28;19913;-79
2023/03/23 05:30:48;;;;;;;;;;;;;;;;;;4963343;28;19937;-80
2023/03/23 05:33:15;;;;;;;;;;;;;;;;;;4979316;28;19924;-78
2023/03/23 05:36:00;;;;;;;;;;;;;;;;;;4991061;28;19937;-80
2023/03/23 05:38:31;;;;;;;;;;;;;;;;;;4961796;28;19921;-78
2023/03/23 05:40:59;;;;;;;;;;;;;;;;;;4979199;28;19914;-79
2023/03/23 05:43:27;;;;;;;;;;;;;;;;;;4960457;28;20365;-79
2023/03/23 05:46:06;;;;;;;;;;;;;;;;;;4980742;28;19910;-79
2023/03/23 05:48:32;;;;;;;;;;;;;;;;;;5009129;28;19921;-80
2023/03/23 05:51:01;;;;;;;;;;;;;;;;;;4973034;28;19932;-79
2023/03/23 05:53:29;;;;;;;;;;;;;;;;;;4961088;28;19917;-80
2023/03/23 05:55:55;;;;;;;;;;;;;;;;;;4976688;28;19953;-80
2023/03/23 05:58:31;;;;;;;;;;;;;;;;;;4977583;28;19918;-80
2023/03/23 06:00:57;;;;;;;;;;;;;;;;;;4961879;28;19914;-80
2023/03/23 06:03:26;;;;;;;;;;;;;;;;;;4977230;28;19917;-79
2023/03/23 06:06:00;;;;;;;;;;;;;;;;;;4977788;28;19914;-79
2023/03/23 06:08:37;;;;;;;;;;;;;;;;;;4961798;28;19965;-80
2023/03/23 06:11:03;;;;;;;;;;;;;;;;;;4993109;28;19914;-79
2023/03/23 06:13:30;;;;;;;;;;;;;;;;;;4976300;28;19924;-79
2023/03/23 06:16:03;;;;;;;;;;;;;;;;;;4975571;28;19914;-79
2023/03/23 06:18:43;;;;;;;;;;;;;;;;;;4975806;28;19924;-79
2023/03/23 06:21:27;;;;;;;;;;;;;;;;;;5010775;28;19965;-79
2023/03/23 06:24:04;;;;;;;;;;;;;;;;;;4976884;28;19957;-80
2023/03/23 06:26:33;;;;;;;;;;;;;;;;;;4973393;28;19914;-79
2023/03/23 06:29:01;;;;;;;;;;;;;;;;;;5003226;28;19981;-80
2023/03/23 06:31:30;;;;;;;;;;;;;;;;;;4956796;28;19921;-79
2023/03/23 06:33:58;;;;;;;;;;;;;;;;;;4990579;28;19918;-79
2023/03/23 06:36:26;;;;;;;;;;;;;;;;;;5008297;28;19918;-78
2023/03/23 06:39:07;;;;;;;;;;;;;;;;;;4963781;28;20146;-79
2023/03/23 06:41:46;;;;;;;;;;;;;;;;;;4986999;23;19925;-79
2023/03/23 06:44:13;;;;;;;;;;;;;;;;;;4955116;28;19922;-84
2023/03/23 06:46:38;;;;;;;;;;;;;;;;;;4955966;28;19953;-85
2023/03/23 06:49:17;;;;;;;;;;;;;;;;;;4956678;28;20014;-86
2023/03/23 06:51:49;;;;;;;;;;;;;;;;;;4956340;28;19914;-87
2023/03/23 06:54:15;;;;;;;;;;;;;;;;;;4955890;28;20444;-86
2023/03/23 06:56:42;;;;;;;;;;;;;;;;;;4972282;28;19922;-87
2023/03/23 06:59:10;;;;;;;;;;;;;;;;;;4972638;28;19918;-88
2023/03/23 07:01:36;;;;;;;;;;;;;;;;;;4972772;28;19914;-87
2023/03/23 07:04:02;;;;;;;;;;;;;;;;;;4956336;28;20374;-87
2023/03/23 07:06:37;;;;;;;;;;;;;;;;;;4972359;28;19914;-86
2023/03/23 07:09:04;;;;;;;;;;;;;;;;;;4973195;28;19921;-87
2023/03/23 07:11:31;;;;;;;;;;;;;;;;;;4957843;28;19910;-88
2023/03/23 07:14:01;;;;;;;;;;;;;;;;;;4940917;28;19925;-87
2023/03/23 07:16:26;;;;;;;;;;;;;;;;;;4975164;28;19914;-88
2023/03/23 07:18:52;;;;;;;;;;;;;;;;;;4961218;28;19915;-88
2023/03/23 07:21:17;;;;;;;;;;;;;;;;;;4977557;28;20381;-89
2023/03/23 07:23:43;;;;;;;;;;;;;;;;;;4977105;28;19973;-88
2023/03/23 07:26:12;;;;;;;;;;;;;;;;;;4976592;28;19914;-88
2023/03/23 07:28:43;;;;;;;;;;;;;;;;;;4962158;28;19922;-86
2023/03/23 07:31:37;;;;;;;;;;;;;;;;;;4966999;28;20393;-87
2023/03/23 07:34:03;;;;;;;;;;;;;;;;;;4960564;28;19919;-88
2023/03/23 07:36:41;;;;;;;;;;;;;;;;;;4976507;28;19921;-87
2023/03/23 07:39:08;;;;;;;;;;;;;;;;;;4992963;28;19914;-89
2023/03/23 07:41:33;;;;;;;;;;;;;;;;;;4978200;28;20398;-89
2023/03/23 07:44:03;;;;;;;;;;;;;;;;;;4978147;28;20366;-88
2023/03/23 07:46:32;;;;;;;;;;;;;;;;;;4976136;28;20053;-89
2023/03/23 07:49:15;;;;;;;;;;;;;;;;;;4977725;28;20293;-86
2023/03/23 07:51:45;;;;;;;;;;;;;;;;;;4975574;28;19915;-85
2023/03/23 07:54:13;;;;;;;;;;;;;;;;;;4960244;28;20417;-88
2023/03/23 07:56:51;;;;;;;;;;;;;;;;;;4944685;28;20128;-86
2023/03/23 07:59:21;;;;;;;;;;;;;;;;;;4975193;28;19920;-86
2023/03/23 08:01:46;;;;;;;;;;;;;;;;;;4965773;28;20390;-88
2023/03/23 08:04:36;;;;;;;;;;;;;;;;;;4946640;28;20001;-86
2023/03/23 08:07:25;;;;;;;;;;;;;;;;;;4972033;28;19914;-88
2023/03/23 08:10:29;;;;;;;;;;;;;;;;;;4920547;29;19937;-88
2023/03/23 08:13:15;;;;;;;;;;;;;;;;;;4936358;29;19926;-88
2023/03/23 08:16:09;;;;;;;;;;;;;;;;;;4959745;28;19949;-89
2023/03/23 08:19:09;;;;;;;;;;;;;;;;;;4979200;28;19957;-89
2023/03/23 08:21:58;;;;;;;;;;;;;;;;;;4981077;28;19925;-88
2023/03/23 08:25:03;;;;;;;;;;;;;;;;;;4962198;28;20444;-89
2023/03/23 08:27:58;;;;;;;;;;;;;;;;;;4967044;28;19921;-86
2023/03/23 08:30:33;;;;;;;;;;;;;;;;;;4960828;28;19914;-83
2023/03/23 08:33:10;;;;;;;;;;;;;;;;;;4976238;28;19925;-84
2023/03/23 08:35:54;;;;;;;;;;;;;;;;;;4977922;28;19918;-87
2023/03/23 08:38:47;;;;;;;;;;;;;;;;;;4993436;28;19976;-87
2023/03/23 08:41:27;;;;;;;;;;;;;;;;;;4994773;28;19914;-82
2023/03/23 08:43:53;;;;;;;;;;;;;;;;;;4993956;28;19922;-85
2023/03/23 08:46:45;;;;;;;;;;;;;;;;;;4994447;28;19914;-85
2023/03/23 08:49:17;;;;;;;;;;;;;;;;;;4981944;28;19929;-85
2023/03/23 08:52:09;;;;;;;;;;;;;;;;;;4995797;28;19921;-85
2023/03/23 08:54:49;;;;;;;;;;;;;;;;;;4985788;28;19925;-88
2023/03/23 08:57:29;;;;;;;;;;;;;;;;;;4968492;28;19914;-87
2023/03/23 09:00:27;;;;;;;;;;;;;;;;;;4977603;28;19925;-86
2023/03/23 09:03:11;;;;;;;;;;;;;;;;;;4975656;28;19921;-87
2023/03/23 09:06:02;;;;;;;;;;;;;;;;;;4972282;28;19914;-88
2023/03/23 09:08:35;;;;;;;;;;;;;;;;;;4958581;28;20065;-88
2023/03/23 09:11:02;;;;;;;;;;;;;;;;;;4974630;28;20363;-86
2023/03/23 09:13:27;;;;;;;;;;;;;;;;;;4974253;28;19918;-85
2023/03/23 09:15:52;;;;;;;;;;;;;;;;;;4973851;28;19914;-86
2023/03/23 09:18:18;;;;;;;;;;;;;;;;;;4975407;28;19918;-86
2023/03/23 09:20:43;;;;;;;;;;;;;;;;;;4990667;28;20004;-88
2023/03/23 09:23:09;;;;;;;;;;;;;;;;;;4973667;28;19949;-87
2023/03/23 09:25:35;;;;;;;;;;;;;;;;;;4973808;28;19914;-84
2023/03/23 09:28:00;;;;;;;;;;;;;;;;;;4973873;28;19914;-86
2023/03/23 09:30:26;;;;;;;;;;;;;;;;;;4957839;28;20039;-87
2023/03/23 09:32:52;;;;;;;;;;;;;;;;;;4974916;28;19929;-87
2023/03/23 09:35:17;;;;;;;;;;;;;;;;;;4974845;28;20412;-88
2023/03/23 09:37:43;;;;;;;;;;;;;;;;;;4989995;28;19968;-88
2023/03/23 09:40:09;;;;;;;;;;;;;;;;;;4974246;28;19914;-90
2023/03/23 09:42:35;;;;;;;;;;;;;;;;;;4974973;28;20204;-91
2023/03/23 09:45:00;;;;;;;;;;;;;;;;;;4991164;28;20273;-89
2023/03/23 09:47:28;;;;;;;;;;;;;;;;;;4963074;28;19914;-89
2023/03/23 09:49:54;;;;;;;;;;;;;;;;;;4964245;28;19914;-90
2023/03/23 09:52:20;;;;;;;;;;;;;;;;;;4981164;28;19914;-87
2023/03/23 09:54:45;;;;;;;;;;;;;;;;;;4980869;28;20378;-89
2023/03/23 09:57:10;;;;;;;;;;;;;;;;;;4959960;28;19914;-88
2023/03/23 09:59:36;;;;;;;;;;;;;;;;;;4974962;28;19918;-90
2023/03/23 10:02:02;;;;;;;;;;;;;;;;;;4973915;28;19957;-90
2023/03/23 10:04:28;;;;;;;;;;;;;;;;;;4989701;28;20263;-91
2023/03/23 10:06:53;;;;;;;;;;;;;;;;;;4973662;28;20277;-89
2023/03/23 10:09:19;;;;;;;;;;;;;;;;;;4990497;28;19910;-89
2023/03/23 10:11:44;;;;;;;;;;;;;;;;;;4974041;28;20370;-88
2023/03/23 10:14:10;;;;;;;;;;;;;;;;;;4974111;28;20285;-86
2023/03/23 10:16:36;;;;;;;;;;;;;;;;;;4989132;28;19950;-87
2023/03/23 10:19:02;;;;;;;;;;;;;;;;;;4957023;28;19921;-87
2023/03/23 10:21:29;;;;;;;;;;;;;;;;;;4974123;28;19914;-87
2023/03/23 10:23:55;;;;;;;;;;;;;;;;;;4988856;28;19914;-87
2023/03/23 10:26:20;;;;;;;;;;;;;;;;;;4972714;28;19968;-85
2023/03/23 10:28:46;;;;;;;;;;;;;;;;;;4974225;28;19918;-86
2023/03/23 10:31:12;;;;;;;;;;;;;;;;;;4974120;28;19922;-88
2023/03/23 10:33:38;;;;;;;;;;;;;;;;;;4973785;28;19925;-89
2023/03/23 10:36:03;;;;;;;;;;;;;;;;;;4988817;28;19914;-89
2023/03/23 10:38:29;;;;;;;;;;;;;;;;;;4956298;28;20022;-88
2023/03/23 10:40:55;;;;;;;;;;;;;;;;;;4956661;28;19921;-87
2023/03/23 10:43:20;;;;;;;;;;;;;;;;;;4956570;28;19919;-88
2023/03/23 10:45:46;;;;;;;;;;;;;;;;;;4973291;28;19922;-87
2023/03/23 10:48:11;;;;;;;;;;;;;;;;;;4972895;28;19914;-88
2023/03/23 10:50:37;;;;;;;;;;;;;;;;;;4971971;28;19961;-87
2023/03/23 10:53:03;;;;;;;;;;;;;;;;;;4972592;28;19968;-90
2023/03/23 10:55:28;;;;;;;;;;;;;;;;;;4973424;28;20286;-88
2023/03/23 10:57:54;;;;;;;;;;;;;;;;;;4972130;28;19934;-86
2023/03/23 11:00:19;;;;;;;;;;;;;;;;;;4972654;28;20338;-85
2023/03/23 11:02:45;;;;;;;;;;;;;;;;;;4973982;28;19914;-84
2023/03/23 11:05:10;;;;;;;;;;;;;;;;;;4974306;28;20304;-85
2023/03/23 11:07:36;;;;;;;;;;;;;;;;;;4972696;28;20014;-86
2023/03/23 11:10:01;;;;;;;;;;;;;;;;;;4972590;28;19917;-85
2023/03/23 11:12:26;;;;;;;;;;;;;;;;;;4956684;28;20445;-86
2023/03/23 11:14:52;;;;;;;;;;;;;;;;;;4971925;28;19922;-84
2023/03/23 11:17:18;;;;;;;;;;;;;;;;;;4956500;28;19915;-84
2023/03/23 11:19:43;;;;;;;;;;;;;;;;;;4973909;28;19957;-85
2023/03/23 11:22:09;;;;;;;;;;;;;;;;;;4972453;28;19969;-86
2023/03/23 11:24:34;;;;;;;;;;;;;;;;;;4956563;28;20263;-87
2023/03/23 11:27:00;;;;;;;;;;;;;;;;;;4988431;28;19972;-84
2023/03/23 11:29:25;;;;;;;;;;;;;;;;;;4972700;28;19914;-83
2023/03/23 11:31:52;;;;;;;;;;;;;;;;;;4956293;28;19997;-83
2023/03/23 11:34:17;;;;;;;;;;;;;;;;;;4972989;28;19955;-83
2023/03/23 11:36:42;;;;;;;;;;;;;;;;;;4941093;28;20378;-85
2023/03/23 11:39:08;;;;;;;;;;;;;;;;;;4957578;28;19914;-87
2023/03/23 11:41:34;;;;;;;;;;;;;;;;;;4957896;28;19914;-83
2023/03/23 11:43:59;;;;;;;;;;;;;;;;;;4975228;28;19925;-83
2023/03/23 11:46:25;;;;;;;;;;;;;;;;;;4941906;28;20386;-84
2023/03/23 11:48:51;;;;;;;;;;;;;;;;;;4975615;28;19921;-84
2023/03/23 11:51:16;;;;;;;;;;;;;;;;;;4974559;28;19914;-84
2023/03/23 11:53:41;;;;;;;;;;;;;;;;;;4956992;28;19952;-81
2023/03/23 11:56:07;;;;;;;;;;;;;;;;;;4941428;28;19917;-84
2023/03/23 11:58:32;;;;;;;;;;;;;;;;;;4980902;28;19938;-84
2023/03/23 12:00:58;;;;;;;;;;;;;;;;;;4988410;28;19921;-84
2023/03/23 12:03:25;;;;;;;;;;;;;;;;;;5008121;28;19993;-84
2023/03/23 12:05:54;;;;;;;;;;;;;;;;;;5013311;28;19914;-82
2023/03/23 12:08:19;;;;;;;;;;;;;;;;;;4996211;28;20270;-81
2023/03/23 12:10:46;;;;;;;;;;;;;;;;;;4993985;28;19914;-83
2023/03/23 12:13:11;;;;;;;;;;;;;;;;;;4994310;28;19925;-81
2023/03/23 12:15:36;;;;;;;;;;;;;;;;;;4987421;28;19914;-85
2023/03/23 12:18:02;;;;;;;;;;;;;;;;;;4983006;28;19924;-85
2023/03/23 12:20:28;;;;;;;;;;;;;;;;;;4979667;28;19949;-84
2023/03/23 12:22:54;;;;;;;;;;;;;;;;;;4975942;28;20319;-84
2023/03/23 12:25:19;;;;;;;;;;;;;;;;;;4974724;28;19914;-83
2023/03/23 12:27:45;;;;;;;;;;;;;;;;;;4976234;28;19910;-83
2023/03/23 12:30:10;;;;;;;;;;;;;;;;;;4974993;28;19920;-84
2023/03/23 12:32:36;;;;;;;;;;;;;;;;;;4975603;28;19918;-85
2023/03/23 12:35:01;;;;;;;;;;;;;;;;;;4976739;28;19921;-85
2023/03/23 12:37:27;;;;;;;;;;;;;;;;;;4978359;28;19915;-85
2023/03/23 12:39:52;;;;;;;;;;;;;;;;;;4977240;28;20382;-85
2023/03/23 12:42:18;;;;;;;;;;;;;;;;;;4978735;28;20289;-85
2023/03/23 12:44:43;;;;;;;;;;;;;;;;;;4981510;28;19914;-87
2023/03/23 12:47:09;;;;;;;;;;;;;;;;;;4965138;28;19921;-88
2023/03/23 12:49:34;;;;;;;;;;;;;;;;;;4982194;28;20382;-88
2023/03/23 12:52:00;;;;;;;;;;;;;;;;;;4995408;28;19914;-87
2023/03/23 12:54:26;;;;;;;;;;;;;;;;;;4978744;28;19924;-85
2023/03/23 12:56:52;;;;;;;;;;;;;;;;;;4976238;28;20306;-88
2023/03/23 12:59:17;;;;;;;;;;;;;;;;;;4975055;28;19914;-88
2023/03/23 13:01:43;;;;;;;;;;;;;;;;;;4990697;28;20317;-88
2023/03/23 13:04:08;;;;;;;;;;;;;;;;;;4975581;28;20325;-87
2023/03/23 13:06:34;;;;;;;;;;;;;;;;;;4974320;28;19921;-85
2023/03/23 13:09:00;;;;;;;;;;;;;;;;;;4975552;28;19918;-86
2023/03/23 13:11:26;;;;;;;;;;;;;;;;;;4974560;28;19964;-86
2023/03/23 13:13:52;;;;;;;;;;;;;;;;;;4974817;28;19921;-86
2023/03/23 13:16:17;;;;;;;;;;;;;;;;;;4974946;28;20409;-86
2023/03/23 13:18:43;;;;;;;;;;;;;;;;;;4975339;28;20017;-86
2023/03/23 13:21:09;;;;;;;;;;;;;;;;;;4958033;28;20384;-86
2023/03/23 13:23:34;;;;;;;;;;;;;;;;;;4975122;28;19960;-87
2023/03/23 13:25:59;;;;;;;;;;;;;;;;;;4981784;28;19971;-85
2023/03/23 13:28:26;;;;;;;;;;;;;;;;;;4974165;28;20378;-83
2023/03/23 13:30:51;;;;;;;;;;;;;;;;;;4974950;28;19928;-86
2023/03/23 13:33:16;;;;;;;;;;;;;;;;;;4974629;28;19999;-86
2023/03/23 13:35:42;;;;;;;;;;;;;;;;;;4974159;28;20009;-86
2023/03/23 13:38:08;;;;;;;;;;;;;;;;;;4989765;28;19942;-87
2023/03/23 13:40:33;;;;;;;;;;;;;;;;;;4957349;28;19958;-84
2023/03/23 13:42:59;;;;;;;;;;;;;;;;;;4974372;28;19921;-85
2023/03/23 13:45:24;;;;;;;;;;;;;;;;;;4974310;28;19915;-84
2023/03/23 13:47:50;;;;;;;;;;;;;;;;;;4974542;28;20299;-86
2023/03/23 13:50:17;;;;;;;;;;;;;;;;;;4973378;28;19969;-88
2023/03/23 13:52:42;;;;;;;;;;;;;;;;;;4973442;28;20039;-86
2023/03/23 13:55:08;;;;;;;;;;;;;;;;;;4957358;28;20374;-87
2023/03/23 13:57:37;;;;;;;;;;;;;;;;;;4973825;28;20437;-87
2023/03/23 14:00:03;;;;;;;;;;;;;;;;;;4989839;28;19921;-88
2023/03/23 14:02:30;;;;;;;;;;;;;;;;;;4989328;28;19914;-84
2023/03/23 14:04:55;;;;;;;;;;;;;;;;;;4989637;28;19921;-86
2023/03/23 14:07:21;;;;;;;;;;;;;;;;;;4974106;28;19910;-87
2023/03/23 14:09:47;;;;;;;;;;;;;;;;;;4973293;28;19924;-88
2023/03/23 14:12:16;;;;;;;;;;;;;;;;;;4974050;28;19914;-87
2023/03/23 14:14:41;;;;;;;;;;;;;;;;;;4990348;28;19918;-86
2023/03/23 14:17:06;;;;;;;;;;;;;;;;;;4973806;28;19981;-86
2023/03/23 14:19:32;;;;;;;;;;;;;;;;;;4975203;28;19922;-86
2023/03/23 14:21:57;;;;;;;;;;;;;;;;;;4974854;28;20393;-86
2023/03/23 14:24:23;;;;;;;;;;;;;;;;;;4973664;28;19941;-87
2023/03/23 14:26:51;;;;;;;;;;;;;;;;;;4973911;28;20285;-85
2023/03/23 14:29:17;;;;;;;;;;;;;;;;;;4975994;28;19922;-86
2023/03/23 14:31:42;;;;;;;;;;;;;;;;;;4974076;28;19922;-87
2023/03/23 14:34:08;;;;;;;;;;;;;;;;;;4991177;28;20297;-84
2023/03/23 14:36:33;;;;;;;;;;;;;;;;;;4977719;28;19925;-84
2023/03/23 14:38:59;;;;;;;;;;;;;;;;;;4978478;28;19914;-86
2023/03/23 14:41:24;;;;;;;;;;;;;;;;;;4992812;28;20001;-86
2023/03/23 14:43:50;;;;;;;;;;;;;;;;;;4977581;28;19934;-84
2023/03/23 14:46:15;;;;;;;;;;;;;;;;;;4993267;28;19953;-85
2023/03/23 14:48:40;;;;;;;;;;;;;;;;;;4977907;28;19914;-85
2023/03/23 14:51:06;;;;;;;;;;;;;;;;;;4975066;28;19925;-87
2023/03/23 14:53:32;;;;;;;;;;;;;;;;;;4973220;28;19925;-86
2023/03/23 14:55:57;;;;;;;;;;;;;;;;;;4974352;28;19953;-86
2023/03/23 14:58:23;;;;;;;;;;;;;;;;;;4974220;28;20021;-87
2023/03/23 15:00:48;;;;;;;;;;;;;;;;;;4990378;28;20493;-86
2023/03/23 15:03:13;;;;;;;;;;;;;;;;;;4973538;28;20469;-87
2023/03/23 15:05:40;;;;;;;;;;;;;;;;;;4972931;28;20389;-86
2023/03/23 15:08:06;;;;;;;;;;;;;;;;;;4989328;28;19965;-86
2023/03/23 15:10:31;;;;;;;;;;;;;;;;;;4958381;28;19918;-87
2023/03/23 15:12:57;;;;;;;;;;;;;;;;;;4976530;28;19921;-86
2023/03/23 15:15:23;;;;;;;;;;;;;;;;;;4978857;28;19915;-86
2023/03/23 15:17:48;;;;;;;;;;;;;;;;;;4970889;28;20416;-86
2023/03/23 15:20:14;;;;;;;;;;;;;;;;;;5000984;28;19914;-84
2023/03/23 15:22:39;;;;;;;;;;;;;;;;;;4992470;28;19925;-86
2023/03/23 15:25:05;;;;;;;;;;;;;;;;;;4992257;28;19956;-85
2023/03/23 15:27:31;;;;;;;;;;;;;;;;;;4977686;28;19945;-84
2023/03/23 15:29:57;;;;;;;;;;;;;;;;;;4978978;28;19918;-85
2023/03/23 15:32:22;;;;;;;;;;;;;;;;;;5007360;28;19914;-87
2023/03/23 15:34:47;;;;;;;;;;;;;;;;;;4968199;28;19941;-86
2023/03/23 15:37:13;;;;;;;;;;;;;;;;;;4971090;28;19914;-87
2023/03/23 15:39:38;;;;;;;;;;;;;;;;;;4987886;28;20370;-89
2023/03/23 15:42:03;;;;;;;;;;;;;;;;;;4963545;28;20271;-87
2023/03/23 15:44:29;;;;;;;;;;;;;;;;;;4961103;28;20014;-89
2023/03/23 15:46:55;;;;;;;;;;;;;;;;;;4960043;28;20369;-86
2023/03/23 15:49:21;;;;;;;;;;;;;;;;;;4976610;28;19917;-88
2023/03/23 15:51:46;;;;;;;;;;;;;;;;;;4961320;28;19926;-89
2023/03/23 15:54:12;;;;;;;;;;;;;;;;;;4960215;28;19918;-89
2023/03/23 15:56:37;;;;;;;;;;;;;;;;;;4944398;28;19949;-88
2023/03/23 15:59:02;;;;;;;;;;;;;;;;;;4976564;28;19914;-88
2023/03/23 16:01:28;;;;;;;;;;;;;;;;;;4943912;28;19982;-90
2023/03/23 16:03:53;;;;;;;;;;;;;;;;;;4959673;28;19964;-87
2023/03/23 16:06:18;;;;;;;;;;;;;;;;;;4959295;28;19983;-87
2023/03/23 16:08:45;;;;;;;;;;;;;;;;;;4977346;28;19918;-87
2023/03/23 16:11:10;;;;;;;;;;;;;;;;;;4959232;28;19937;-87
2023/03/23 16:13:36;;;;;;;;;;;;;;;;;;4959340;28;20326;-85
2023/03/23 16:16:01;;;;;;;;;;;;;;;;;;4976270;28;19910;-88
2023/03/23 16:18:27;;;;;;;;;;;;;;;;;;4943614;28;19918;-87
2023/03/23 16:20:52;;;;;;;;;;;;;;;;;;4976078;28;19914;-87
2023/03/23 16:23:18;;;;;;;;;;;;;;;;;;4976449;28;19914;-89
2023/03/23 16:25:43;;;;;;;;;;;;;;;;;;4959087;28;20285;-88
2023/03/23 16:28:09;;;;;;;;;;;;;;;;;;4976349;28;20263;-88
2023/03/23 16:30:34;;;;;;;;;;;;;;;;;;4959291;28;19921;-89
2023/03/23 16:33:00;;;;;;;;;;;;;;;;;;4959228;28;19930;-86
2023/03/23 16:35:27;;;;;;;;;;;;;;;;;;4958857;28;19921;-88
2023/03/23 16:37:53;;;;;;;;;;;;;;;;;;4977342;28;19922;-88
2023/03/23 16:40:19;;;;;;;;;;;;;;;;;;4975405;28;19961;-87
2023/03/23 16:42:44;;;;;;;;;;;;;;;;;;4991471;28;19918;-87
2023/03/23 16:45:09;;;;;;;;;;;;;;;;;;4974933;28;19973;-87
2023/03/23 16:47:35;;;;;;;;;;;;;;;;;;4974894;28;19918;-88
2023/03/23 16:50:00;;;;;;;;;;;;;;;;;;4976576;28;19921;-83
2023/03/23 16:52:26;;;;;;;;;;;;;;;;;;4977237;28;19925;-88
2023/03/23 16:54:51;;;;;;;;;;;;;;;;;;4974326;28;19918;-88